Ashton, Kansas
Current Conditions -  °F | °C
As of 11:54 PM on Friday 31 Oct 2014 (Local Time) from KWLD Reporting Station
Clear Clear  
Wind Chill: 31°   Ceiling: Unl
Heat Index: 35°   Visibility: 10mi
Dew Point: 18°   Wind: 5mph
Humidity: 50%   Direction: 70°ENE
Pressure: 30.44"   Gusts: NA
Location:  37.0641°N, 97.2025°W
Report Text: KWLD 010454Z AUTO 07004KT 10SM CLR 02/M08 A3044 RMK AO2 SLP315 T00171078
Loading
Personal Weather Stations






























Interactive Weather Map
Tropical Storm Tracking
New forecast layout! Learn more

10-Day Weather Forecast

Advertisements
Track Severe Weather on mobile